sensor_id;sensor_type;location;lat;lon;timestamp;pressure;altitude;pressure_sealevel;temperature;humidity
59053;BME280;44843;44.728;10.396;2023-04-30T00:01:23;100342.13;;;17.55;nan
59053;BME280;44843;44.728;10.396;2023-04-30T00:03:49;100335.56;;;17.49;nan
59053;BME280;44843;44.728;10.396;2023-04-30T00:06:14;100337.66;;;17.45;nan
59053;BME280;44843;44.728;10.396;2023-04-30T00:08:40;100339.88;;;17.50;nan
59053;BME280;44843;44.728;10.396;2023-04-30T00:11:05;100342.03;;;17.25;nan
59053;BME280;44843;44.728;10.396;2023-04-30T00:13:31;100343.03;;;17.34;nan
59053;BME280;44843;44.728;10.396;2023-04-30T00:15:56;100336.22;;;17.32;nan
59053;BME280;44843;44.728;10.396;2023-04-30T00:18:21;100344.75;;;17.45;nan
59053;BME280;44843;44.728;10.396;2023-04-30T00:20:47;100343.13;;;17.23;nan
59053;BME280;44843;44.728;10.396;2023-04-30T00:23:12;100340.34;;;17.15;nan
59053;BME280;44843;44.728;10.396;2023-04-30T00:25:37;100334.56;;;17.30;nan
59053;BME280;44843;44.728;10.396;2023-04-30T00:28:03;100332.09;;;17.39;nan
59053;BME280;44843;44.728;10.396;2023-04-30T00:30:28;100338.47;;;17.36;nan
59053;BME280;44843;44.728;10.396;2023-04-30T00:32:54;100329.41;;;17.19;nan
59053;BME280;44843;44.728;10.396;2023-04-30T00:35:19;100324.81;;;17.21;nan
59053;BME280;44843;44.728;10.396;2023-04-30T00:37:45;100322.31;;;17.20;nan
59053;BME280;44843;44.728;10.396;2023-04-30T00:40:10;100327.16;;;17.15;nan
59053;BME280;44843;44.728;10.396;2023-04-30T00:42:36;100329.09;;;17.13;nan
59053;BME280;44843;44.728;10.396;2023-04-30T00:45:01;100325.34;;;17.05;nan
59053;BME280;44843;44.728;10.396;2023-04-30T00:47:27;100327.97;;;17.05;nan
59053;BME280;44843;44.728;10.396;2023-04-30T00:49:52;100319.91;;;17.07;nan
59053;BME280;44843;44.728;10.396;2023-04-30T00:52:18;100311.81;;;16.89;nan
59053;BME280;44843;44.728;10.396;2023-04-30T00:54:44;100311.38;;;16.84;nan
59053;BME280;44843;44.728;10.396;2023-04-30T00:57:11;100316.88;;;16.81;nan
59053;BME280;44843;44.728;10.396;2023-04-30T00:59:37;100315.00;;;16.93;nan
59053;BME280;44843;44.728;10.396;2023-04-30T01:02:03;100321.38;;;16.69;nan
59053;BME280;44843;44.728;10.396;2023-04-30T01:04:28;100323.19;;;16.68;nan
59053;BME280;44843;44.728;10.396;2023-04-30T01:06:54;100319.69;;;16.68;nan
59053;BME280;44843;44.728;10.396;2023-04-30T01:09:21;100321.38;;;16.48;nan
59053;BME280;44843;44.728;10.396;2023-04-30T01:16:50;100317.47;;;16.63;nan
59053;BME280;44843;44.728;10.396;2023-04-30T01:19:37;100313.03;;;16.85;nan
59053;BME280;44843;44.728;10.396;2023-04-30T01:22:09;100322.25;;;17.00;nan
59053;BME280;44843;44.728;10.396;2023-04-30T01:30:20;100324.44;;;16.74;nan
59053;BME280;44843;44.728;10.396;2023-04-30T01:32:46;100325.69;;;16.91;nan
59053;BME280;44843;44.728;10.396;2023-04-30T01:35:12;100326.28;;;17.04;nan
59053;BME280;44843;44.728;10.396;2023-04-30T01:37:52;100325.84;;;16.99;nan
59053;BME280;44843;44.728;10.396;2023-04-30T01:40:43;100328.44;;;16.89;nan
59053;BME280;44843;44.728;10.396;2023-04-30T01:51:40;100333.50;;;16.81;nan
59053;BME280;44843;44.728;10.396;2023-04-30T01:54:30;100334.72;;;16.77;nan
59053;BME280;44843;44.728;10.396;2023-04-30T01:57:28;100322.47;;;16.87;nan
59053;BME280;44843;44.728;10.396;2023-04-30T01:59:56;100327.19;;;16.84;nan
59053;BME280;44843;44.728;10.396;2023-04-30T02:02:22;100323.75;;;16.72;nan
59053;BME280;44843;44.728;10.396;2023-04-30T02:04:47;100320.41;;;16.70;nan
59053;BME280;44843;44.728;10.396;2023-04-30T02:07:19;100318.31;;;16.64;nan
59053;BME280;44843;44.728;10.396;2023-04-30T02:09:50;100320.94;;;16.85;nan
59053;BME280;44843;44.728;10.396;2023-04-30T02:12:15;100320.94;;;16.64;nan
59053;BME280;44843;44.728;10.396;2023-04-30T02:14:41;100323.13;;;16.59;nan
59053;BME280;44843;44.728;10.396;2023-04-30T02:17:06;100327.88;;;16.65;nan
59053;BME280;44843;44.728;10.396;2023-04-30T02:19:31;100325.53;;;16.51;nan
59053;BME280;44843;44.728;10.396;2023-04-30T02:21:57;100322.59;;;16.65;nan
59053;BME280;44843;44.728;10.396;2023-04-30T02:24:22;100321.50;;;16.67;nan
59053;BME280;44843;44.728;10.396;2023-04-30T02:26:47;100324.66;;;16.61;nan
59053;BME280;44843;44.728;10.396;2023-04-30T02:29:13;100321.31;;;16.59;nan
59053;BME280;44843;44.728;10.396;2023-04-30T02:31:38;100325.69;;;16.49;nan
59053;BME280;44843;44.728;10.396;2023-04-30T02:34:04;100333.09;;;16.55;nan
59053;BME280;44843;44.728;10.396;2023-04-30T02:36:29;100327.81;;;16.55;nan
59053;BME280;44843;44.728;10.396;2023-04-30T02:38:57;100331.91;;;16.48;nan
59053;BME280;44843;44.728;10.396;2023-04-30T02:41:23;100341.94;;;16.54;nan
59053;BME280;44843;44.728;10.396;2023-04-30T02:43:48;100334.22;;;16.41;nan
59053;BME280;44843;44.728;10.396;2023-04-30T02:46:13;100342.25;;;16.19;nan
59053;BME280;44843;44.728;10.396;2023-04-30T02:48:39;100345.06;;;16.27;nan
59053;BME280;44843;44.728;10.396;2023-04-30T02:51:04;100351.59;;;15.79;nan
59053;BME280;44843;44.728;10.396;2023-04-30T02:53:29;100335.78;;;15.91;nan
59053;BME280;44843;44.728;10.396;2023-04-30T02:55:55;100345.31;;;15.92;nan
59053;BME280;44843;44.728;10.396;2023-04-30T02:58:20;100330.84;;;15.97;nan
59053;BME280;44843;44.728;10.396;2023-04-30T03:00:46;100344.75;;;15.88;nan
59053;BME280;44843;44.728;10.396;2023-04-30T03:03:11;100343.81;;;15.78;nan
59053;BME280;44843;44.728;10.396;2023-04-30T03:05:36;100341.78;;;15.81;nan
59053;BME280;44843;44.728;10.396;2023-04-30T03:08:02;100332.44;;;15.89;nan
59053;BME280;44843;44.728;10.396;2023-04-30T03:10:27;100347.03;;;15.81;nan
59053;BME280;44843;44.728;10.396;2023-04-30T03:12:52;100343.34;;;15.61;nan
59053;BME280;44843;44.728;10.396;2023-04-30T03:15:18;100351.25;;;15.39;nan
59053;BME280;44843;44.728;10.396;2023-04-30T03:17:43;100343.50;;;15.49;nan
59053;BME280;44843;44.728;10.396;2023-04-30T03:20:09;100358.22;;;15.29;nan
59053;BME280;44843;44.728;10.396;2023-04-30T03:22:35;100353.06;;;15.38;nan
59053;BME280;44843;44.728;10.396;2023-04-30T03:25:00;100347.56;;;15.19;nan
59053;BME280;44843;44.728;10.396;2023-04-30T03:27:26;100344.47;;;15.25;nan
59053;BME280;44843;44.728;10.396;2023-04-30T03:29:51;100345.16;;;15.50;nan
59053;BME280;44843;44.728;10.396;2023-04-30T03:32:16;100352.34;;;15.25;nan
59053;BME280;44843;44.728;10.396;2023-04-30T03:34:42;100346.03;;;15.28;nan
59053;BME280;44843;44.728;10.396;2023-04-30T03:37:07;100338.50;;;15.34;nan
59053;BME280;44843;44.728;10.396;2023-04-30T03:39:32;100338.25;;;15.03;nan
59053;BME280;44843;44.728;10.396;2023-04-30T03:41:58;100341.13;;;15.12;nan
59053;BME280;44843;44.728;10.396;2023-04-30T03:44:24;100345.56;;;15.22;nan
59053;BME280;44843;44.728;10.396;2023-04-30T03:46:49;100350.31;;;14.95;nan
59053;BME280;44843;44.728;10.396;2023-04-30T03:49:15;100339.22;;;15.36;nan
59053;BME280;44843;44.728;10.396;2023-04-30T03:51:41;100337.53;;;15.47;nan
59053;BME280;44843;44.728;10.396;2023-04-30T03:54:07;100331.88;;;15.74;nan
59053;BME280;44843;44.728;10.396;2023-04-30T03:56:33;100333.69;;;15.62;nan
59053;BME280;44843;44.728;10.396;2023-04-30T03:59:00;100338.94;;;15.73;nan
59053;BME280;44843;44.728;10.396;2023-04-30T04:01:25;100342.53;;;15.72;nan
59053;BME280;44843;44.728;10.396;2023-04-30T04:03:52;100339.75;;;15.62;nan
59053;BME280;44843;44.728;10.396;2023-04-30T04:06:18;100342.66;;;15.59;nan
59053;BME280;44843;44.728;10.396;2023-04-30T04:08:43;100347.66;;;15.74;nan
59053;BME280;44843;44.728;10.396;2023-04-30T04:11:09;100355.53;;;15.62;nan
59053;BME280;44843;44.728;10.396;2023-04-30T04:13:35;100360.91;;;15.50;nan
59053;BME280;44843;44.728;10.396;2023-04-30T04:16:00;100360.94;;;15.27;nan
59053;BME280;44843;44.728;10.396;2023-04-30T04:18:26;100366.66;;;15.32;nan
59053;BME280;44843;44.728;10.396;2023-04-30T04:20:51;100367.16;;;15.37;nan
59053;BME280;44843;44.728;10.396;2023-04-30T04:23:17;100373.84;;;15.30;nan
59053;BME280;44843;44.728;10.396;2023-04-30T04:25:42;100383.28;;;15.44;nan
59053;BME280;44843;44.728;10.396;2023-04-30T04:28:08;100382.19;;;15.13;nan
59053;BME280;44843;44.728;10.396;2023-04-30T04:30:34;100393.41;;;15.15;nan
59053;BME280;44843;44.728;10.396;2023-04-30T04:33:00;100397.38;;;15.20;nan
59053;BME280;44843;44.728;10.396;2023-04-30T04:35:26;100396.94;;;14.80;nan
59053;BME280;44843;44.728;10.396;2023-04-30T04:37:51;100399.38;;;14.94;nan
59053;BME280;44843;44.728;10.396;2023-04-30T04:40:16;100405.44;;;14.95;nan
59053;BME280;44843;44.728;10.396;2023-04-30T04:42:42;100403.41;;;14.76;nan
59053;BME280;44843;44.728;10.396;2023-04-30T04:45:08;100404.97;;;14.78;nan
59053;BME280;44843;44.728;10.396;2023-04-30T04:47:34;100406.41;;;14.94;nan
59053;BME280;44843;44.728;10.396;2023-04-30T04:49:59;100411.66;;;14.94;nan
59053;BME280;44843;44.728;10.396;2023-04-30T04:52:25;100421.47;;;15.03;nan
59053;BME280;44843;44.728;10.396;2023-04-30T04:54:50;100414.16;;;14.95;nan
59053;BME280;44843;44.728;10.396;2023-04-30T04:57:16;100411.50;;;14.84;nan
59053;BME280;44843;44.728;10.396;2023-04-30T04:59:41;100412.25;;;14.97;nan
59053;BME280;44843;44.728;10.396;2023-04-30T05:02:06;100415.13;;;14.94;nan
59053;BME280;44843;44.728;10.396;2023-04-30T05:04:32;100413.13;;;15.20;nan
59053;BME280;44843;44.728;10.396;2023-04-30T05:06:57;100411.97;;;14.78;nan
59053;BME280;44843;44.728;10.396;2023-04-30T05:09:22;100420.38;;;15.06;nan
59053;BME280;44843;44.728;10.396;2023-04-30T05:11:48;100421.38;;;15.16;nan
59053;BME280;44843;44.728;10.396;2023-04-30T05:14:14;100417.03;;;14.92;nan
59053;BME280;44843;44.728;10.396;2023-04-30T05:16:39;100413.19;;;14.85;nan
59053;BME280;44843;44.728;10.396;2023-04-30T05:19:04;100424.63;;;14.73;nan
59053;BME280;44843;44.728;10.396;2023-04-30T05:21:30;100418.94;;;14.90;nan
59053;BME280;44843;44.728;10.396;2023-04-30T05:23:56;100415.69;;;14.87;nan
59053;BME280;44843;44.728;10.396;2023-04-30T05:26:22;100421.00;;;15.09;nan
59053;BME280;44843;44.728;10.396;2023-04-30T05:28:48;100428.16;;;15.07;nan
59053;BME280;44843;44.728;10.396;2023-04-30T05:31:14;100424.25;;;15.47;nan
59053;BME280;44843;44.728;10.396;2023-04-30T05:33:40;100425.19;;;15.34;nan
59053;BME280;44843;44.728;10.396;2023-04-30T05:36:06;100431.63;;;15.64;nan
59053;BME280;44843;44.728;10.396;2023-04-30T05:38:32;100428.03;;;15.65;nan
59053;BME280;44843;44.728;10.396;2023-04-30T05:40:57;100437.63;;;15.77;nan
59053;BME280;44843;44.728;10.396;2023-04-30T05:43:22;100433.66;;;15.38;nan
59053;BME280;44843;44.728;10.396;2023-04-30T05:45:48;100431.25;;;15.35;nan
59053;BME280;44843;44.728;10.396;2023-04-30T05:48:13;100429.34;;;15.14;nan
59053;BME280;44843;44.728;10.396;2023-04-30T05:50:38;100429.50;;;15.24;nan
59053;BME280;44843;44.728;10.396;2023-04-30T05:53:04;100436.28;;;15.15;nan
59053;BME280;44843;44.728;10.396;2023-04-30T05:55:29;100439.28;;;15.33;nan
59053;BME280;44843;44.728;10.396;2023-04-30T05:57:55;100435.56;;;15.47;nan
59053;BME280;44843;44.728;10.396;2023-04-30T06:00:20;100430.91;;;15.62;nan
59053;BME280;44843;44.728;10.396;2023-04-30T06:02:46;100419.69;;;15.71;nan
59053;BME280;44843;44.728;10.396;2023-04-30T06:05:11;100413.25;;;15.75;nan
59053;BME280;44843;44.728;10.396;2023-04-30T06:07:37;100421.47;;;15.71;nan
59053;BME280;44843;44.728;10.396;2023-04-30T06:10:04;100424.75;;;15.74;nan
59053;BME280;44843;44.728;10.396;2023-04-30T06:12:30;100427.53;;;16.05;nan
59053;BME280;44843;44.728;10.396;2023-04-30T06:14:55;100417.66;;;15.86;nan
59053;BME280;44843;44.728;10.396;2023-04-30T06:17:21;100413.63;;;16.14;nan
59053;BME280;44843;44.728;10.396;2023-04-30T06:19:46;100415.59;;;16.33;nan
59053;BME280;44843;44.728;10.396;2023-04-30T06:22:12;100416.72;;;16.52;nan
59053;BME280;44843;44.728;10.396;2023-04-30T06:24:37;100417.88;;;16.59;nan
59053;BME280;44843;44.728;10.396;2023-04-30T06:27:03;100417.19;;;16.78;nan
59053;BME280;44843;44.728;10.396;2023-04-30T06:29:28;100418.69;;;16.59;nan
59053;BME280;44843;44.728;10.396;2023-04-30T06:31:53;100416.72;;;16.84;nan
59053;BME280;44843;44.728;10.396;2023-04-30T06:34:19;100425.91;;;16.78;nan
59053;BME280;44843;44.728;10.396;2023-04-30T06:36:45;100425.00;;;16.47;nan
59053;BME280;44843;44.728;10.396;2023-04-30T06:39:14;100417.31;;;16.55;nan
59053;BME280;44843;44.728;10.396;2023-04-30T06:41:39;100423.66;;;16.74;nan
59053;BME280;44843;44.728;10.396;2023-04-30T06:44:05;100413.91;;;16.85;nan
59053;BME280;44843;44.728;10.396;2023-04-30T06:46:30;100419.56;;;16.81;nan
59053;BME280;44843;44.728;10.396;2023-04-30T06:48:56;100418.69;;;16.92;nan
59053;BME280;44843;44.728;10.396;2023-04-30T06:51:21;100423.66;;;16.74;nan
59053;BME280;44843;44.728;10.396;2023-04-30T06:53:46;100426.69;;;16.69;nan
59053;BME280;44843;44.728;10.396;2023-04-30T06:56:12;100421.44;;;16.90;nan
59053;BME280;44843;44.728;10.396;2023-04-30T06:58:37;100420.66;;;16.78;nan
59053;BME280;44843;44.728;10.396;2023-04-30T07:01:02;100424.63;;;16.73;nan
59053;BME280;44843;44.728;10.396;2023-04-30T07:03:28;100430.31;;;16.89;nan
59053;BME280;44843;44.728;10.396;2023-04-30T07:05:53;100430.34;;;16.99;nan
59053;BME280;44843;44.728;10.396;2023-04-30T07:08:19;100439.63;;;16.93;nan
59053;BME280;44843;44.728;10.396;2023-04-30T07:10:44;100433.84;;;16.99;nan
59053;BME280;44843;44.728;10.396;2023-04-30T07:13:09;100436.97;;;17.14;nan
59053;BME280;44843;44.728;10.396;2023-04-30T07:15:35;100433.91;;;17.40;nan
59053;BME280;44843;44.728;10.396;2023-04-30T07:18:01;100432.63;;;17.75;nan
59053;BME280;44843;44.728;10.396;2023-04-30T07:20:28;100428.63;;;17.80;nan
59053;BME280;44843;44.728;10.396;2023-04-30T07:22:53;100428.00;;;17.57;nan
59053;BME280;44843;44.728;10.396;2023-04-30T07:25:19;100436.22;;;18.14;nan
59053;BME280;44843;44.728;10.396;2023-04-30T07:27:45;100423.31;;;18.40;nan
59053;BME280;44843;44.728;10.396;2023-04-30T07:30:11;100428.88;;;18.18;nan
59053;BME280;44843;44.728;10.396;2023-04-30T07:32:37;100430.00;;;18.35;nan
59053;BME280;44843;44.728;10.396;2023-04-30T07:35:05;100421.09;;;18.55;nan
59053;BME280;44843;44.728;10.396;2023-04-30T07:37:30;100421.66;;;18.49;nan
59053;BME280;44843;44.728;10.396;2023-04-30T07:39:56;100417.91;;;18.42;nan
59053;BME280;44843;44.728;10.396;2023-04-30T07:42:21;100422.06;;;18.44;nan
59053;BME280;44843;44.728;10.396;2023-04-30T07:44:47;100421.91;;;18.17;nan
59053;BME280;44843;44.728;10.396;2023-04-30T07:47:13;100425.28;;;18.28;nan
59053;BME280;44843;44.728;10.396;2023-04-30T07:49:38;100433.59;;;18.24;nan
59053;BME280;44843;44.728;10.396;2023-04-30T07:52:04;100422.06;;;18.25;nan
59053;BME280;44843;44.728;10.396;2023-04-30T07:54:30;100421.78;;;18.18;nan
59053;BME280;44843;44.728;10.396;2023-04-30T07:56:55;100434.38;;;17.85;nan
59053;BME280;44843;44.728;10.396;2023-04-30T07:59:21;100433.75;;;17.72;nan
59053;BME280;44843;44.728;10.396;2023-04-30T08:01:49;100431.44;;;17.88;nan
59053;BME280;44843;44.728;10.396;2023-04-30T08:04:14;100430.06;;;17.84;nan
59053;BME280;44843;44.728;10.396;2023-04-30T08:06:40;100421.06;;;17.97;nan
59053;BME280;44843;44.728;10.396;2023-04-30T08:09:05;100431.06;;;17.93;nan
59053;BME280;44843;44.728;10.396;2023-04-30T08:11:31;100430.97;;;17.74;nan
59053;BME280;44843;44.728;10.396;2023-04-30T08:13:56;100431.06;;;18.03;nan
59053;BME280;44843;44.728;10.396;2023-04-30T08:16:22;100422.75;;;18.07;nan
59053;BME280;44843;44.728;10.396;2023-04-30T08:18:47;100422.19;;;18.23;nan
59053;BME280;44843;44.728;10.396;2023-04-30T08:21:14;100419.69;;;18.12;nan
59053;BME280;44843;44.728;10.396;2023-04-30T08:23:40;100425.50;;;17.96;nan
59053;BME280;44843;44.728;10.396;2023-04-30T08:26:06;100432.75;;;18.04;nan
59053;BME280;44843;44.728;10.396;2023-04-30T08:28:31;100422.47;;;18.20;nan
59053;BME280;44843;44.728;10.396;2023-04-30T08:30:57;100420.81;;;18.29;nan
59053;BME280;44843;44.728;10.396;2023-04-30T08:33:22;100423.97;;;18.03;nan
59053;BME280;44843;44.728;10.396;2023-04-30T08:35:47;100419.03;;;18.20;nan
59053;BME280;44843;44.728;10.396;2023-04-30T08:38:13;100428.00;;;17.98;nan
59053;BME280;44843;44.728;10.396;2023-04-30T08:40:38;100421.63;;;18.10;nan
59053;BME280;44843;44.728;10.396;2023-04-30T08:43:05;100433.72;;;18.12;nan
59053;BME280;44843;44.728;10.396;2023-04-30T08:45:34;100427.88;;;18.19;nan
59053;BME280;44843;44.728;10.396;2023-04-30T08:48:01;100430.69;;;18.27;nan
59053;BME280;44843;44.728;10.396;2023-04-30T08:50:29;100436.66;;;18.19;nan
59053;BME280;44843;44.728;10.396;2023-04-30T08:52:56;100430.13;;;18.14;nan
59053;BME280;44843;44.728;10.396;2023-04-30T08:55:23;100440.81;;;18.22;nan
59053;BME280;44843;44.728;10.396;2023-04-30T08:57:50;100426.66;;;18.23;nan
59053;BME280;44843;44.728;10.396;2023-04-30T09:00:15;100432.22;;;18.49;nan
59053;BME280;44843;44.728;10.396;2023-04-30T09:02:41;100427.19;;;18.56;nan
59053;BME280;44843;44.728;10.396;2023-04-30T09:05:12;100431.09;;;18.71;nan
59053;BME280;44843;44.728;10.396;2023-04-30T09:07:42;100427.56;;;19.09;nan
59053;BME280;44843;44.728;10.396;2023-04-30T09:10:18;100422.19;;;18.82;nan
59053;BME280;44843;44.728;10.396;2023-04-30T09:13:00;100425.38;;;18.76;nan
59053;BME280;44843;44.728;10.396;2023-04-30T09:15:27;100432.59;;;18.93;nan
59053;BME280;44843;44.728;10.396;2023-04-30T09:18:06;100424.50;;;19.04;nan
59053;BME280;44843;44.728;10.396;2023-04-30T09:20:32;100416.88;;;19.01;nan
59053;BME280;44843;44.728;10.396;2023-04-30T09:23:08;100423.97;;;18.91;nan
59053;BME280;44843;44.728;10.396;2023-04-30T09:25:41;100429.13;;;18.92;nan
59053;BME280;44843;44.728;10.396;2023-04-30T09:28:10;100423.25;;;19.08;nan
59053;BME280;44843;44.728;10.396;2023-04-30T09:30:37;100425.25;;;18.97;nan
59053;BME280;44843;44.728;10.396;2023-04-30T09:33:03;100429.69;;;18.86;nan
59053;BME280;44843;44.728;10.396;2023-04-30T09:35:33;100430.53;;;18.97;nan
59053;BME280;44843;44.728;10.396;2023-04-30T09:38:00;100428.56;;;18.99;nan
59053;BME280;44843;44.728;10.396;2023-04-30T09:40:35;100430.41;;;18.79;nan
59053;BME280;44843;44.728;10.396;2023-04-30T09:43:02;100424.72;;;18.83;nan
59053;BME280;44843;44.728;10.396;2023-04-30T09:45:41;100435.53;;;18.90;nan
59053;BME280;44843;44.728;10.396;2023-04-30T09:48:10;100436.63;;;18.97;nan
59053;BME280;44843;44.728;10.396;2023-04-30T09:50:39;100424.19;;;19.17;nan
59053;BME280;44843;44.728;10.396;2023-04-30T09:53:06;100433.31;;;19.42;nan
59053;BME280;44843;44.728;10.396;2023-04-30T09:56:07;100440.25;;;19.43;nan
59053;BME280;44843;44.728;10.396;2023-04-30T09:58:43;100444.50;;;19.54;nan
59053;BME280;44843;44.728;10.396;2023-04-30T10:01:09;100435.16;;;19.69;nan
59053;BME280;44843;44.728;10.396;2023-04-30T10:03:41;100436.56;;;19.64;nan
59053;BME280;44843;44.728;10.396;2023-04-30T10:06:07;100434.63;;;19.56;nan
59053;BME280;44843;44.728;10.396;2023-04-30T10:08:38;100426.50;;;19.40;nan
59053;BME280;44843;44.728;10.396;2023-04-30T10:11:06;100427.09;;;19.24;nan
59053;BME280;44843;44.728;10.396;2023-04-30T10:14:11;100427.22;;;19.32;nan
59053;BME280;44843;44.728;10.396;2023-04-30T10:16:54;100431.72;;;19.49;nan
59053;BME280;44843;44.728;10.396;2023-04-30T10:19:24;100427.13;;;19.51;nan
59053;BME280;44843;44.728;10.396;2023-04-30T10:21:50;100419.19;;;19.51;nan
59053;BME280;44843;44.728;10.396;2023-04-30T10:24:18;100415.03;;;19.49;nan
59053;BME280;44843;44.728;10.396;2023-04-30T10:26:45;100404.31;;;19.50;nan
59053;BME280;44843;44.728;10.396;2023-04-30T10:29:15;100415.69;;;19.33;nan
59053;BME280;44843;44.728;10.396;2023-04-30T10:31:46;100407.56;;;19.34;nan
59053;BME280;44843;44.728;10.396;2023-04-30T10:36:49;100405.63;;;19.37;nan
59053;BME280;44843;44.728;10.396;2023-04-30T10:39:22;100400.56;;;19.53;nan
59053;BME280;44843;44.728;10.396;2023-04-30T10:42:00;100410.91;;;19.37;nan
59053;BME280;44843;44.728;10.396;2023-04-30T10:44:25;100404.56;;;19.57;nan
59053;BME280;44843;44.728;10.396;2023-04-30T10:46:57;100403.97;;;19.63;nan
59053;BME280;44843;44.728;10.396;2023-04-30T10:49:24;100392.16;;;19.85;nan
59053;BME280;44843;44.728;10.396;2023-04-30T10:51:50;100396.19;;;19.89;nan
59053;BME280;44843;44.728;10.396;2023-04-30T10:54:24;100397.75;;;19.82;nan
59053;BME280;44843;44.728;10.396;2023-04-30T10:56:50;100399.84;;;19.79;nan
59053;BME280;44843;44.728;10.396;2023-04-30T10:59:16;100394.94;;;19.56;nan
59053;BME280;44843;44.728;10.396;2023-04-30T11:02:07;100395.28;;;19.43;nan
59053;BME280;44843;44.728;10.396;2023-04-30T11:05:07;100387.59;;;19.50;nan
59053;BME280;44843;44.728;10.396;2023-04-30T11:07:33;100393.84;;;19.31;nan
59053;BME280;44843;44.728;10.396;2023-04-30T11:09:59;100396.47;;;19.31;nan
59053;BME280;44843;44.728;10.396;2023-04-30T11:12:26;100387.63;;;19.22;nan
59053;BME280;44843;44.728;10.396;2023-04-30T11:15:11;100383.09;;;19.32;nan
59053;BME280;44843;44.728;10.396;2023-04-30T11:17:37;100388.34;;;19.42;nan
59053;BME280;44843;44.728;10.396;2023-04-30T11:20:03;100387.28;;;19.35;nan
59053;BME280;44843;44.728;10.396;2023-04-30T11:22:29;100377.81;;;19.32;nan
59053;BME280;44843;44.728;10.396;2023-04-30T11:25:09;100373.00;;;19.46;nan
59053;BME280;44843;44.728;10.396;2023-04-30T11:27:36;100371.06;;;19.48;nan
59053;BME280;44843;44.728;10.396;2023-04-30T11:30:03;100368.66;;;19.54;nan
59053;BME280;44843;44.728;10.396;2023-04-30T11:32:35;100370.59;;;19.52;nan
59053;BME280;44843;44.728;10.396;2023-04-30T11:35:03;100365.63;;;19.77;nan
59053;BME280;44843;44.728;10.396;2023-04-30T11:37:40;100358.16;;;19.90;nan
59053;BME280;44843;44.728;10.396;2023-04-30T11:40:08;100354.16;;;20.04;nan
59053;BME280;44843;44.728;10.396;2023-04-30T11:42:36;100351.50;;;20.22;nan
59053;BME280;44843;44.728;10.396;2023-04-30T11:45:07;100356.09;;;20.20;nan
59053;BME280;44843;44.728;10.396;2023-04-30T11:47:46;100352.28;;;20.14;nan
59053;BME280;44843;44.728;10.396;2023-04-30T11:50:14;100361.03;;;19.97;nan
59053;BME280;44843;44.728;10.396;2023-04-30T11:52:40;100344.84;;;20.00;nan
59053;BME280;44843;44.728;10.396;2023-04-30T11:55:16;100365.50;;;19.96;nan
59053;BME280;44843;44.728;10.396;2023-04-30T11:57:43;100360.03;;;19.80;nan
59053;BME280;44843;44.728;10.396;2023-04-30T12:00:11;100356.47;;;19.89;nan
59053;BME280;44843;44.728;10.396;2023-04-30T12:02:37;100356.13;;;19.84;nan
59053;BME280;44843;44.728;10.396;2023-04-30T12:05:05;100350.81;;;19.84;nan
59053;BME280;44843;44.728;10.396;2023-04-30T12:07:30;100352.25;;;19.79;nan
59053;BME280;44843;44.728;10.396;2023-04-30T12:09:57;100345.09;;;19.61;nan
59053;BME280;44843;44.728;10.396;2023-04-30T12:12:27;100355.06;;;19.67;nan
59053;BME280;44843;44.728;10.396;2023-04-30T12:14:53;100346.88;;;19.70;nan
59053;BME280;44843;44.728;10.396;2023-04-30T12:17:36;100348.50;;;19.53;nan
59053;BME280;44843;44.728;10.396;2023-04-30T12:20:02;100346.63;;;19.64;nan
59053;BME280;44843;44.728;10.396;2023-04-30T12:22:29;100344.34;;;19.69;nan
59053;BME280;44843;44.728;10.396;2023-04-30T12:24:55;100342.28;;;19.72;nan
59053;BME280;44843;44.728;10.396;2023-04-30T12:27:21;100342.88;;;19.84;nan
59053;BME280;44843;44.728;10.396;2023-04-30T12:29:46;100328.47;;;19.96;nan
59053;BME280;44843;44.728;10.396;2023-04-30T12:32:14;100335.94;;;20.01;nan
59053;BME280;44843;44.728;10.396;2023-04-30T12:34:42;100328.00;;;20.01;nan
59053;BME280;44843;44.728;10.396;2023-04-30T12:37:08;100329.56;;;19.94;nan
59053;BME280;44843;44.728;10.396;2023-04-30T12:39:34;100327.91;;;19.93;nan
59053;BME280;44843;44.728;10.396;2023-04-30T12:41:59;100326.78;;;19.95;nan
59053;BME280;44843;44.728;10.396;2023-04-30T12:44:26;100336.56;;;19.67;nan
59053;BME280;44843;44.728;10.396;2023-04-30T12:46:56;100330.44;;;19.67;nan
59053;BME280;44843;44.728;10.396;2023-04-30T12:49:29;100328.47;;;19.69;nan
59053;BME280;44843;44.728;10.396;2023-04-30T12:52:07;100325.47;;;19.64;nan
59053;BME280;44843;44.728;10.396;2023-04-30T12:54:33;100322.13;;;19.62;nan
59053;BME280;44843;44.728;10.396;2023-04-30T12:57:07;100324.63;;;19.63;nan
59053;BME280;44843;44.728;10.396;2023-04-30T12:59:35;100315.47;;;19.58;nan
59053;BME280;44843;44.728;10.396;2023-04-30T13:02:12;100319.16;;;19.74;nan
59053;BME280;44843;44.728;10.396;2023-04-30T13:04:42;100313.69;;;19.76;nan
59053;BME280;44843;44.728;10.396;2023-04-30T13:07:08;100301.56;;;19.83;nan
59053;BME280;44843;44.728;10.396;2023-04-30T13:09:35;100306.16;;;19.81;nan
59053;BME280;44843;44.728;10.396;2023-04-30T13:12:01;100296.63;;;19.88;nan
59053;BME280;44843;44.728;10.396;2023-04-30T13:14:26;100303.78;;;20.14;nan
59053;BME280;44843;44.728;10.396;2023-04-30T13:16:52;100290.66;;;20.30;nan
59053;BME280;44843;44.728;10.396;2023-04-30T13:19:18;100295.88;;;20.40;nan
59053;BME280;44843;44.728;10.396;2023-04-30T13:21:43;100288.88;;;20.57;nan
59053;BME280;44843;44.728;10.396;2023-04-30T13:24:09;100292.59;;;20.46;nan